createdAt,value
2024-05-09T00:02:04.536Z,3.13
2024-05-09T00:05:10.934Z,3.72
2024-05-09T00:08:15.317Z,2.85
2024-05-09T00:11:20.716Z,4.15
2024-05-09T00:14:23.831Z,4.93
2024-05-09T00:17:28.276Z,3.17
2024-05-09T00:20:38.023Z,2.45
2024-05-09T00:23:44.228Z,3.38
2024-05-09T00:26:47.866Z,3.35
2024-05-09T00:29:51.436Z,3.75
2024-05-09T00:32:54.503Z,3.63
2024-05-09T00:35:58.062Z,1.70
2024-05-09T00:39:01.721Z,1.92
2024-05-09T00:42:05.451Z,3.65
2024-05-09T00:45:08.329Z,3.13
2024-05-09T00:48:17.557Z,3.53
2024-05-09T00:51:23.559Z,2.67
2024-05-09T00:54:27.606Z,4.28
2024-05-09T00:57:30.716Z,2.38
2024-05-09T01:00:39.109Z,2.80
2024-05-09T01:03:45.934Z,3.40
2024-05-09T01:06:50.155Z,4.13
2024-05-09T01:09:53.689Z,2.42
2024-05-09T01:12:57.155Z,2.50
2024-05-09T01:16:01.321Z,3.38
2024-05-09T01:19:09.931Z,2.57
2024-05-09T01:22:13.435Z,3.05
2024-05-09T01:25:16.593Z,3.40
2024-05-09T01:28:20.502Z,3.28
2024-05-09T01:31:23.960Z,2.50
2024-05-09T01:34:27.514Z,3.20
2024-05-09T01:37:31.117Z,2.92
2024-05-09T01:40:38.647Z,2.70
2024-05-09T01:43:45.495Z,2.22
2024-05-09T01:46:48.747Z,2.75
2024-05-09T01:49:52.491Z,1.63
2024-05-09T01:52:56.224Z,2.40
2024-05-09T01:55:59.823Z,2.33
2024-05-09T01:59:03.332Z,2.47
2024-05-09T02:02:07.807Z,2.60
2024-05-09T02:05:11.829Z,2.70
2024-05-09T02:08:16.760Z,1.70
2024-05-09T02:11:20.547Z,3.13
2024-05-09T02:14:24.286Z,1.85
2024-05-09T02:17:28.040Z,2.30
2024-05-09T02:20:36.245Z,5.07
2024-05-09T02:23:40.566Z,4.20
2024-05-09T02:26:44.034Z,2.70
2024-05-09T02:29:47.576Z,3.63
2024-05-09T02:32:51.229Z,1.77
2024-05-09T02:35:54.891Z,1.50
2024-05-09T02:38:58.376Z,2.55
2024-05-09T02:42:01.783Z,2.90
2024-05-09T02:45:05.703Z,2.03
2024-05-09T02:48:13.482Z,2.72
2024-05-09T02:51:17.756Z,2.60
2024-05-09T02:54:21.231Z,1.90
2024-05-09T02:57:24.902Z,2.33
2024-05-09T03:00:36.678Z,1.30
2024-05-09T03:03:45.699Z,2.35
2024-05-09T03:06:50.230Z,2.20
2024-05-09T03:09:53.715Z,2.60
2024-05-09T03:12:57.452Z,2.50
2024-05-09T03:16:00.954Z,2.00
2024-05-09T03:19:04.876Z,3.55
2024-05-09T03:22:08.457Z,2.03
2024-05-09T03:25:12.622Z,2.90
2024-05-09T03:28:16.117Z,2.33
2024-05-09T03:31:19.789Z,2.65
2024-05-09T03:34:23.441Z,2.55
2024-05-09T03:37:27.387Z,2.57
2024-05-09T03:40:31.490Z,4.13
2024-05-09T03:43:35.438Z,2.03
2024-05-09T03:46:39.937Z,1.75
2024-05-09T03:49:43.384Z,2.67
2024-05-09T03:52:46.976Z,1.90
2024-05-09T03:55:50.588Z,2.03
2024-05-09T03:58:55.639Z,2.22
2024-05-09T04:01:59.773Z,1.88
2024-05-09T04:05:03.347Z,1.13
2024-05-09T04:08:07.136Z,1.50
2024-05-09T04:11:10.649Z,3.10
2024-05-09T04:14:14.456Z,1.75
2024-05-09T04:17:17.933Z,1.67
2024-05-09T04:20:32.594Z,2.15
2024-05-09T04:23:41.577Z,1.43
2024-05-09T04:26:45.032Z,1.38
2024-05-09T04:29:48.528Z,4.85
2024-05-09T04:32:52.137Z,1.65
2024-05-09T04:35:55.747Z,2.65
2024-05-09T04:38:59.302Z,1.27
2024-05-09T04:42:02.797Z,1.70
2024-05-09T04:45:06.557Z,1.88
2024-05-09T04:48:10.323Z,5.03
2024-05-09T04:51:14.034Z,1.83
2024-05-09T04:54:29.817Z,1.50
2024-05-09T04:57:39.343Z,1.65
2024-05-09T05:00:42.835Z,2.55
2024-05-09T05:03:46.672Z,2.13
2024-05-09T05:06:50.303Z,3.22
2024-05-09T05:09:53.324Z,4.90
2024-05-09T05:13:15.623Z,4.50
2024-05-09T05:16:19.056Z,8.23
2024-05-09T05:19:22.669Z,5.60
2024-05-09T05:22:26.331Z,6.03
2024-05-09T05:25:29.292Z,5.40
2024-05-09T05:28:33.312Z,17.05
2024-05-09T05:31:36.872Z,7.82
2024-05-09T05:34:40.760Z,6.03
2024-05-09T05:37:44.703Z,4.85
2024-05-09T05:40:48.541Z,6.43
2024-05-09T05:43:52.340Z,5.20
2024-05-09T05:46:57.247Z,4.43
2024-05-09T05:50:20.474Z,4.15
2024-05-09T05:53:43.092Z,9.13
2024-05-09T05:56:52.074Z,8.67
2024-05-09T05:59:58.490Z,6.70
2024-05-09T06:03:02.972Z,5.05
2024-05-09T06:06:08.056Z,7.40
2024-05-09T06:09:12.681Z,6.40
2024-05-09T06:12:18.742Z,4.90
2024-05-09T06:15:22.783Z,4.22
2024-05-09T06:18:27.850Z,6.63
2024-05-09T06:21:31.721Z,6.18
2024-05-09T06:24:36.200Z,9.52
2024-05-09T06:27:41.088Z,7.53
2024-05-09T06:30:50.391Z,6.45
2024-05-09T06:33:58.020Z,9.40
2024-05-09T06:37:07.843Z,7.75
2024-05-09T06:40:17.468Z,5.93
2024-05-09T06:43:22.300Z,5.67
2024-05-09T06:46:26.821Z,7.57
2024-05-09T06:49:32.923Z,7.20
2024-05-09T06:52:37.025Z,6.25
2024-05-09T06:55:41.096Z,5.65
2024-05-09T06:58:45.145Z,5.20
2024-05-09T07:01:48.760Z,6.30
2024-05-09T07:04:52.943Z,4.25
2024-05-09T07:07:56.841Z,6.40
2024-05-09T07:11:00.986Z,9.43
2024-05-09T07:14:04.851Z,6.13
2024-05-09T07:17:08.756Z,4.07
2024-05-09T07:20:23.004Z,8.48
2024-05-09T07:23:31.503Z,5.65
2024-05-09T07:26:35.246Z,6.07
2024-05-09T07:29:38.961Z,4.77
2024-05-09T07:32:45.262Z,7.10
2024-05-09T07:35:49.173Z,5.65
2024-05-09T07:38:53.426Z,5.82
2024-05-09T07:41:59.447Z,5.95
2024-05-09T07:45:21.309Z,7.33
2024-05-09T07:50:00.306Z,8.15
2024-05-09T07:53:20.943Z,5.47
2024-05-09T07:55:15.882Z,5.60
2024-05-09T07:58:19.691Z,5.53
2024-05-09T08:01:28.793Z,5.60
2024-05-09T08:04:36.843Z,8.48
2024-05-09T08:07:48.457Z,5.78
2024-05-09T08:10:51.769Z,5.38
2024-05-09T08:13:56.740Z,8.75
2024-05-09T08:16:59.836Z,7.93
2024-05-09T08:20:05.658Z,9.50
2024-05-09T08:23:08.840Z,4.55
2024-05-09T08:26:15.494Z,8.57
2024-05-09T08:29:20.169Z,4.20
2024-05-09T08:32:27.574Z,6.90
2024-05-09T08:35:33.314Z,5.70
2024-05-09T08:38:36.984Z,8.60
2024-05-09T08:41:42.893Z,7.88
2024-05-09T08:44:51.449Z,5.43
2024-05-09T08:48:00.523Z,7.43
2024-05-09T08:51:04.617Z,5.30
2024-05-09T08:54:08.359Z,6.10
2024-05-09T08:57:15.504Z,10.73
2024-05-09T09:00:29.703Z,9.38
2024-05-09T09:03:41.662Z,6.97
2024-05-09T09:06:46.592Z,13.57
2024-05-09T09:09:50.782Z,9.20
2024-05-09T09:12:58.092Z,16.77
2024-05-09T09:16:03.274Z,7.97
2024-05-09T09:19:07.351Z,13.43
2024-05-09T09:22:11.199Z,9.50
2024-05-09T09:25:14.393Z,8.32
2024-05-09T09:28:18.349Z,10.02
2024-05-09T09:31:22.510Z,9.88
2024-05-09T09:34:28.634Z,10.43
2024-05-09T09:37:32.817Z,6.07
2024-05-09T09:40:42.826Z,9.25
2024-05-09T09:43:51.447Z,8.40
2024-05-09T09:46:57.018Z,10.38
2024-05-09T09:50:03.110Z,7.80
2024-05-09T09:53:08.138Z,7.15
2024-05-09T09:56:12.290Z,13.40
2024-05-09T09:59:16.348Z,12.02
2024-05-09T10:02:21.555Z,13.77
2024-05-09T10:05:26.144Z,9.90
2024-05-09T10:08:30.700Z,7.07
2024-05-09T10:11:41.870Z,6.30
2024-05-09T10:14:51.538Z,7.95
2024-05-09T10:18:07.347Z,8.13
2024-05-09T10:21:19.159Z,8.77
2024-05-09T10:24:25.147Z,7.80
2024-05-09T10:27:29.974Z,5.72
2024-05-09T10:30:36.044Z,4.60
2024-05-09T10:33:51.854Z,6.78
2024-05-09T10:36:56.437Z,9.13
2024-05-09T10:40:01.225Z,4.00
2024-05-09T10:43:06.601Z,6.55
2024-05-09T10:46:13.207Z,8.52
2024-05-09T10:49:43.397Z,7.40
2024-05-09T10:52:47.759Z,7.37
2024-05-09T10:56:17.343Z,7.07
2024-05-09T10:59:23.976Z,9.90
2024-05-09T11:02:28.731Z,12.57
2024-05-09T11:05:35.084Z,16.63
2024-05-09T11:08:40.870Z,8.37
2024-05-09T11:11:44.855Z,8.43
2024-05-09T11:14:56.400Z,12.43
2024-05-09T11:18:00.326Z,6.88
2024-05-09T11:21:14.618Z,9.52
2024-05-09T11:24:19.170Z,11.30
2024-05-09T11:27:23.910Z,13.93
2024-05-09T11:30:32.004Z,12.23
2024-05-09T11:33:41.189Z,10.82
2024-05-09T11:36:45.237Z,12.30
2024-05-09T11:39:49.080Z,8.47
2024-05-09T11:42:53.416Z,11.77
2024-05-09T11:45:58.186Z,6.10
2024-05-09T11:49:02.304Z,9.57
2024-05-09T11:52:06.111Z,7.75
2024-05-09T11:55:11.644Z,12.20
2024-05-09T11:58:18.234Z,9.60
2024-05-09T12:01:26.932Z,7.55
2024-05-09T12:04:31.205Z,8.25
2024-05-09T12:07:38.798Z,11.35
2024-05-09T12:10:43.566Z,12.07
2024-05-09T12:13:47.400Z,9.65
2024-05-09T12:16:51.060Z,10.18
2024-05-09T12:19:55.704Z,15.18
2024-05-09T12:22:59.342Z,11.00
2024-05-09T12:26:03.824Z,9.33
2024-05-09T12:29:08.081Z,7.93
2024-05-09T12:32:11.715Z,7.85
2024-05-09T12:35:15.803Z,10.75
2024-05-09T12:38:19.000Z,8.40
2024-05-09T12:41:22.726Z,11.60
2024-05-09T12:44:26.218Z,9.30
2024-05-09T12:47:32.255Z,7.30
2024-05-09T12:50:37.193Z,8.38
2024-05-09T12:53:40.442Z,10.52
2024-05-09T12:56:44.023Z,5.83
2024-05-09T12:59:48.201Z,6.07
2024-05-09T13:02:55.276Z,9.85
2024-05-09T13:06:00.022Z,8.25
2024-05-09T13:09:04.310Z,7.38
2024-05-09T13:12:08.510Z,6.73
2024-05-09T13:15:14.457Z,9.10
2024-05-09T13:18:18.284Z,7.85
2024-05-09T13:21:22.643Z,8.02
2024-05-09T13:24:27.530Z,8.00
2024-05-09T13:27:30.626Z,7.77
2024-05-09T13:30:39.750Z,6.55
2024-05-09T13:33:48.193Z,10.13
2024-05-09T13:36:53.163Z,7.53
2024-05-09T13:39:57.637Z,7.45
2024-05-09T13:43:02.469Z,11.23
2024-05-09T13:46:06.371Z,10.52
2024-05-09T13:49:12.588Z,7.18
2024-05-09T13:52:16.459Z,9.48
2024-05-09T13:55:20.046Z,8.93
2024-05-09T13:58:24.122Z,8.90
2024-05-09T14:01:29.274Z,9.73
2024-05-09T14:04:33.073Z,10.38
2024-05-09T14:07:36.877Z,8.75
2024-05-09T14:10:44.554Z,9.05
2024-05-09T14:13:49.730Z,9.70
2024-05-09T14:16:53.403Z,9.52
2024-05-09T14:19:57.052Z,11.65
2024-05-09T14:23:01.239Z,5.57
2024-05-09T14:26:07.015Z,8.60
2024-05-09T14:29:10.739Z,8.60
2024-05-09T14:32:15.409Z,8.05
2024-05-09T14:35:19.008Z,7.85
2024-05-09T14:38:23.506Z,10.35
2024-05-09T14:41:27.062Z,8.05
2024-05-09T14:44:31.350Z,12.20
2024-05-09T14:47:35.306Z,9.05
2024-05-09T14:50:40.569Z,8.98
2024-05-09T14:53:44.551Z,9.60
2024-05-09T14:56:48.171Z,7.53
2024-05-09T14:59:51.852Z,7.03
2024-05-09T15:02:55.578Z,6.53
2024-05-09T15:05:59.422Z,7.40
2024-05-09T15:09:04.085Z,8.00
2024-05-09T15:12:09.783Z,6.68
2024-05-09T15:15:12.845Z,5.87
2024-05-09T15:18:17.152Z,7.97
2024-05-09T15:21:21.069Z,5.18
2024-05-09T15:24:24.579Z,8.45
2024-05-09T15:27:28.358Z,4.43
2024-05-09T15:30:33.687Z,6.23
2024-05-09T15:33:38.621Z,6.57
2024-05-09T15:36:43.293Z,9.27
2024-05-09T15:39:47.181Z,8.25
2024-05-09T15:42:50.714Z,8.35
2024-05-09T15:45:54.583Z,8.73
2024-05-09T15:48:58.495Z,107.55
2024-05-09T15:52:02.335Z,51.08
2024-05-09T15:55:06.943Z,34.85
2024-05-09T15:58:11.323Z,38.63
2024-05-09T16:01:15.538Z,28.27
2024-05-09T16:04:19.384Z,30.98
2024-05-09T16:07:23.234Z,40.83
2024-05-09T16:10:32.356Z,44.30
2024-05-09T16:13:37.783Z,27.63
2024-05-09T16:16:41.475Z,29.83
2024-05-09T16:19:45.342Z,28.17
2024-05-09T16:22:48.298Z,27.60
2024-05-09T16:25:52.174Z,30.20
2024-05-09T16:28:55.528Z,19.42
2024-05-09T16:31:59.113Z,21.77
2024-05-09T16:35:02.904Z,30.48
2024-05-09T16:38:06.766Z,29.60
2024-05-09T16:41:10.369Z,23.83
2024-05-09T16:44:14.062Z,23.67
2024-05-09T16:47:17.799Z,25.60
2024-05-09T16:50:28.761Z,24.60
2024-05-09T16:53:36.039Z,21.20
2024-05-09T16:56:39.655Z,19.15
2024-05-09T16:59:43.212Z,28.05
2024-05-09T17:02:46.780Z,16.60
2024-05-09T17:05:50.851Z,29.20
2024-05-09T17:08:55.609Z,16.02
2024-05-09T17:12:02.523Z,21.48
2024-05-09T17:15:06.150Z,22.45
2024-05-09T17:18:10.478Z,23.43
2024-05-09T17:21:15.242Z,19.80
2024-05-09T17:24:18.748Z,22.15
2024-05-09T17:27:22.451Z,18.55
2024-05-09T17:30:32.401Z,23.45
2024-05-09T17:33:39.841Z,18.70
2024-05-09T17:36:43.563Z,22.40
2024-05-09T17:39:46.723Z,15.05
2024-05-09T17:42:50.386Z,17.75
2024-05-09T17:45:54.123Z,15.55
2024-05-09T17:49:00.428Z,20.37
2024-05-09T17:52:04.795Z,19.80
2024-05-09T17:55:08.476Z,16.10
2024-05-09T17:58:13.007Z,15.30
2024-05-09T18:01:16.093Z,14.52
2024-05-09T18:04:20.784Z,15.53
2024-05-09T18:07:24.475Z,16.23
2024-05-09T18:10:35.214Z,14.95
2024-05-09T18:13:42.476Z,14.77
2024-05-09T18:16:46.164Z,15.43
2024-05-09T18:19:49.952Z,16.60
2024-05-09T18:22:53.742Z,13.98
2024-05-09T18:25:57.436Z,11.18
2024-05-09T18:29:01.049Z,20.42
2024-05-09T18:32:05.077Z,17.23
2024-05-09T18:35:09.559Z,13.13
2024-05-09T18:38:14.248Z,12.50
2024-05-09T18:41:20.885Z,15.23
2024-05-09T18:44:25.135Z,14.48
2024-05-09T18:47:34.497Z,18.77
2024-05-09T18:50:40.971Z,15.53
2024-05-09T18:53:46.397Z,12.93
2024-05-09T18:56:50.522Z,11.50
2024-05-09T18:59:54.982Z,13.63
2024-05-09T19:03:00.339Z,17.38
2024-05-09T19:06:06.532Z,12.87
2024-05-09T19:09:11.642Z,11.63
2024-05-09T19:12:18.639Z,13.48
2024-05-09T19:15:24.412Z,15.43
2024-05-09T19:18:31.198Z,12.82
2024-05-09T19:21:37.956Z,9.73
2024-05-09T19:24:44.991Z,13.02
2024-05-09T19:27:52.468Z,9.85
2024-05-09T19:30:57.994Z,11.20
2024-05-09T19:34:05.181Z,9.95
2024-05-09T19:37:10.904Z,13.67
2024-05-09T19:40:24.564Z,13.13
2024-05-09T19:43:36.162Z,10.20
2024-05-09T19:46:41.775Z,9.52
2024-05-09T19:49:46.097Z,12.70
2024-05-09T19:52:52.381Z,13.33
2024-05-09T19:55:59.377Z,11.02
2024-05-09T19:59:04.939Z,14.25
2024-05-09T20:02:10.083Z,9.48
2024-05-09T20:05:16.493Z,9.05
2024-05-09T20:08:20.790Z,11.63
2024-05-09T20:11:28.449Z,12.50
2024-05-09T20:14:33.152Z,9.95
2024-05-09T20:17:39.530Z,11.15
2024-05-09T20:20:46.864Z,10.38
2024-05-09T20:23:52.415Z,9.60
2024-05-09T20:26:57.838Z,8.55
2024-05-09T20:30:08.069Z,7.60
2024-05-09T20:33:16.825Z,8.85
2024-05-09T20:36:20.989Z,11.65
2024-05-09T20:39:26.049Z,7.73
2024-05-09T20:42:32.199Z,11.50
2024-05-09T20:45:37.549Z,6.47
2024-05-09T20:48:41.119Z,11.40
2024-05-09T20:51:44.847Z,12.55
2024-05-09T20:54:48.432Z,12.90
2024-05-09T20:57:52.432Z,11.90
2024-05-09T21:00:56.090Z,10.65
2024-05-09T21:04:00.299Z,9.88
2024-05-09T21:07:04.364Z,12.75
2024-05-09T21:10:15.497Z,10.07
2024-05-09T21:13:23.204Z,8.20
2024-05-09T21:16:26.837Z,7.07
2024-05-09T21:19:30.319Z,8.77
2024-05-09T21:22:34.103Z,10.93
2024-05-09T21:25:37.945Z,7.70
2024-05-09T21:28:41.308Z,9.73
2024-05-09T21:31:44.901Z,10.25
2024-05-09T21:34:48.433Z,7.63
2024-05-09T21:37:51.909Z,9.30
2024-05-09T21:40:56.667Z,9.10
2024-05-09T21:44:00.220Z,8.68
2024-05-09T21:47:03.288Z,9.02
2024-05-09T21:50:07.849Z,6.38
2024-05-09T21:53:12.636Z,6.75
2024-05-09T21:56:16.693Z,8.90
2024-05-09T21:59:20.278Z,6.75
2024-05-09T22:02:23.965Z,9.23
2024-05-09T22:05:27.567Z,8.70
2024-05-09T22:08:31.360Z,6.68
2024-05-09T22:11:35.094Z,7.97
2024-05-09T22:14:38.658Z,7.80
2024-05-09T22:17:42.342Z,7.40
2024-05-09T22:20:47.162Z,7.20
2024-05-09T22:23:50.637Z,6.72
2024-05-09T22:26:55.322Z,6.53
2024-05-09T22:29:58.848Z,6.97
2024-05-09T22:33:02.569Z,7.43
2024-05-09T22:36:08.910Z,6.82
2024-05-09T22:39:11.913Z,6.78
2024-05-09T22:42:15.495Z,6.53
2024-05-09T22:45:18.958Z,7.63
2024-05-09T22:48:24.261Z,6.70
2024-05-09T22:51:28.319Z,6.53
2024-05-09T22:54:31.763Z,7.63
2024-05-09T22:57:35.304Z,6.37
2024-05-09T23:00:38.972Z,6.90
2024-05-09T23:03:42.744Z,7.85
2024-05-09T23:06:46.363Z,8.40
2024-05-09T23:09:50.110Z,8.43
2024-05-09T23:12:53.622Z,7.03
2024-05-09T23:15:57.300Z,6.70
2024-05-09T23:19:00.257Z,6.80
2024-05-09T23:22:04.175Z,5.95
2024-05-09T23:25:07.831Z,8.50
2024-05-09T23:28:12.376Z,5.53
2024-05-09T23:31:16.186Z,5.70
2024-05-09T23:34:19.273Z,6.75
2024-05-09T23:37:22.970Z,6.18
2024-05-09T23:40:35.075Z,6.43
2024-05-09T23:43:42.720Z,5.50
2024-05-09T23:46:46.242Z,6.35
2024-05-09T23:49:49.801Z,7.68
2024-05-09T23:52:53.546Z,8.15
2024-05-09T23:55:57.011Z,5.78
2024-05-09T23:59:00.485Z,7.80
